Weather History for Jefferson, NC

Change the Weather History Date:

Sunday, July 14, 2013

  Actual Average Record
Temperature  
Mean Temperature 69 °F -  
Max Temperature 73 °F 81 °F 90 °F (1993)
Min Temperature 65 °F 60 °F 50 °F (1969)
Cooling Degree Days 4    
Growing Degree Days 19 (Base 50)    
Moisture  
Dew Point 64 °F    
Average Humidity 89    
Maximum Humidity 94    
Minimum Humidity 69    
Precipitation  
Precipitation 0.84 in - - ()
Sea Level Pressure  
Sea Level Pressure 30.35 in    
Wind  
Wind Speed 6 mph (SE)    
Max Wind Speed 12 mph    
Max Gust Speed 25 mph    
Visibility 6 miles    
Events Rain    
Averages and records for this station are not official NWS values.
T = Trace of Precipitation, MM = Missing Value Source: NWS Daily Summary

Daily Weather History Graph

Daily Weather History Graph

Search for Another Location

Airport:

Trip Planner

Search our weather history database for the weather conditions in past years. The results will help you decide how hot, cold, wet, or windy it might be!

Date:

Astronomy

Jul. 14, 2013 Rise Set
Actual Time 6:18 AM EDT 8:43 PM EDT
Civil Twilight 5:49 AM EDT 9:13 PM EDT
Nautical Twilight 5:12 AM EDT 9:50 PM EDT
Astronomical Twilight 4:31 AM EDT 10:30 PM EDT
Moon 12:22 PM EDT (7/14) No Moon Set
Length of Visible Light 15h 24m
Length of Day
14h 25m
Waxing Crescent, 35% of the Moon is Illuminated
Jul 14
Waxing Crescent
Jul 15
First Quarter
Jul 22
Full
Jul 29
Last Quarter
Aug 6
New

Hourly Weather History & Observations

Time (EDT) Temp. Dew Point Humidity Pressure Visibility Wind Dir Wind Speed Gust Speed Precip Events Conditions
12:15 AM 66.2 °F 63.9 °F 92% 30.26 in 7.0 mi ESE 5.8 mph - N/A   Light Drizzle
12:35 AM 66.4 °F 64.2 °F 93% 30.26 in 7.0 mi East 3.5 mph - N/A   Light Drizzle
12:55 AM 66.4 °F 64.4 °F 93% 30.25 in 3.0 mi East 6.9 mph - N/A   Drizzle
1:15 AM 66.4 °F 64.4 °F 93% 30.25 in 4.0 mi East 10.4 mph - N/A Rain Rain
1:35 AM 66.4 °F 64.4 °F 93% 30.24 in 2.5 mi East 5.8 mph - N/A Rain Rain
1:55 AM 66.4 °F 64.4 °F 93% 30.24 in 3.0 mi East 6.9 mph - N/A   Heavy Drizzle
2:15 AM 66.7 °F 64.8 °F 93% 30.24 in 2.5 mi East 11.5 mph 17.3 mph N/A Rain Rain
2:35 AM 67.1 °F 65.1 °F 93% 30.24 in 3.0 mi ESE 8.1 mph - N/A   Drizzle
2:55 AM 67.1 °F 65.3 °F 94% 30.24 in 3.0 mi SE 8.1 mph - 0.01 in Rain Heavy Rain
3:15 AM 66.7 °F 64.8 °F 93% 30.24 in 4.0 mi SE 9.2 mph 25.3 mph 0.01 in Rain Light Rain
3:35 AM 66.7 °F 64.8 °F 93% 30.24 in 1.2 mi ESE 5.8 mph - 0.02 in Rain Rain
3:55 AM 66.7 °F 64.8 °F 93% 30.25 in 4.0 mi Calm Calm - 0.07 in Rain Heavy Rain
4:15 AM 66.6 °F 64.6 °F 93% 30.25 in 4.0 mi ESE 5.8 mph - 0.06 in Rain Heavy Rain
4:35 AM 66.6 °F 64.6 °F 93% 30.26 in 4.0 mi ESE 8.1 mph 18.4 mph 0.10 in Rain Rain
4:55 AM 66.2 °F 64.4 °F 94% 30.27 in 4.0 mi SE 9.2 mph 20.7 mph 0.11 in Rain Light Rain
5:15 AM 66.2 °F 64.4 °F 94% 30.27 in 5.0 mi SE 6.9 mph - 0.02 in Rain Heavy Rain
5:35 AM 65.8 °F 63.9 °F 93% 30.28 in 5.0 mi SE 8.1 mph 18.4 mph 0.04 in Rain Light Rain
5:55 AM 65.7 °F 63.7 °F 93% 30.29 in 7.0 mi SE 4.6 mph - 0.04 in   Overcast
6:15 AM 65.7 °F 63.7 °F 93% 30.30 in 4.0 mi SE 5.8 mph - N/A   Drizzle
6:35 AM 65.7 °F 63.7 °F 93% 30.30 in 3.0 mi SE 4.6 mph - N/A   Light Drizzle
6:55 AM 65.7 °F 63.7 °F 93% 30.31 in 2.0 mi SE 4.6 mph - N/A   Heavy Drizzle
7:15 AM 65.7 °F 63.7 °F 93% 30.31 in 2.0 mi SE 6.9 mph - N/A   Heavy Drizzle
7:35 AM 65.7 °F 63.7 °F 93% 30.32 in 2.0 mi SSE 3.5 mph - 0.05 in Rain Rain
7:55 AM 65.7 °F 63.7 °F 93% 30.32 in 1.5 mi Calm Calm - 0.11 in Rain Heavy Rain
8:15 AM 65.8 °F 63.9 °F 93% 30.33 in 3.0 mi SE 6.9 mph - 0.03 in Rain Rain
8:35 AM 65.7 °F 63.7 °F 93% 30.34 in 1.8 mi SE 5.8 mph - 0.03 in Rain Rain
8:55 AM 65.7 °F 63.7 °F 93% 30.35 in 1.8 mi SE 5.8 mph - 0.03 in Rain Heavy Rain
9:15 AM 66.2 °F 64.2 °F 93% 30.35 in 2.0 mi SE 4.6 mph - 0.01 in Rain Light Rain
9:35 AM 66.4 °F 64.4 °F 93% 30.36 in 1.8 mi SE 8.1 mph - 0.06 in Rain Rain
9:55 AM 66.2 °F 64.4 °F 94% 30.36 in 2.0 mi SE 5.8 mph - 0.09 in Rain Rain
10:15 AM 66.2 °F 64.0 °F 93% 30.37 in 4.0 mi SE 10.4 mph 20.7 mph 0.01 in   Overcast
10:35 AM 65.8 °F 63.7 °F 93% 30.38 in 1.8 mi SE 11.5 mph 23.0 mph 0.04 in Rain Rain
10:55 AM 65.1 °F 63.1 °F 93% 30.38 in 1.8 mi SE 8.1 mph - 0.16 in Rain Heavy Rain
11:15 AM 65.3 °F 63.0 °F 92% 30.39 in 2.0 mi SE 6.9 mph - 0.10 in Rain Light Rain
11:35 AM 67.1 °F 64.6 °F 92% 30.39 in 7.0 mi SE 5.8 mph - 0.10 in   Overcast
11:55 AM 66.6 °F 64.2 °F 92% 30.40 in 4.0 mi East 6.9 mph - 0.10 in Rain Light Rain
12:15 PM 67.3 °F 64.2 °F 90% 30.40 in 10.0 mi ESE 11.5 mph 24.2 mph N/A   Overcast
12:35 PM 68.2 °F 63.7 °F 85% 30.41 in 10.0 mi SE 9.2 mph 21.9 mph N/A   Overcast
12:55 PM 68.2 °F 64.2 °F 87% 30.40 in 7.0 mi ESE 5.8 mph - N/A   Overcast
1:15 PM 68.2 °F 63.9 °F 86% 30.41 in 7.0 mi SE 8.1 mph - N/A Rain Light Rain
1:35 PM 67.3 °F 64.4 °F 90% 30.42 in 3.0 mi SE 3.5 mph - 0.01 in Rain Heavy Rain
1:55 PM 65.8 °F 63.7 °F 93% 30.42 in 1.5 mi Calm Calm - 0.11 in Rain Light Rain
2:15 PM 66.6 °F 64.4 °F 93% 30.42 in 4.0 mi SE 3.5 mph - N/A Rain Light Rain
2:35 PM 68.5 °F 65.3 °F 89% 30.41 in 10.0 mi SE 3.5 mph - N/A   Overcast
2:55 PM 69.8 °F 66.0 °F 88% 30.40 in 10.0 mi ESE 6.9 mph - N/A   Overcast
3:15 PM 69.8 °F 64.2 °F 82% 30.40 in 10.0 mi SE 3.5 mph - N/A   Overcast
3:35 PM 70.7 °F 65.1 °F 82% 30.39 in 10.0 mi SE 3.5 mph - N/A   Mostly Cloudy
3:55 PM 70.7 °F 62.8 °F 76% 30.38 in 10.0 mi ESE 8.1 mph - N/A   Mostly Cloudy
4:15 PM 72.3 °F 63.0 °F 72% 30.38 in 10.0 mi ESE 5.8 mph - N/A   Mostly Cloudy
4:35 PM 72.7 °F 62.4 °F 70% 30.37 in 10.0 mi ESE 10.4 mph 17.3 mph N/A   Mostly Cloudy
4:55 PM 73.0 °F 62.2 °F 69% 30.37 in 10.0 mi SE 6.9 mph - N/A   Mostly Cloudy
5:15 PM 72.7 °F 62.8 °F 71% 30.37 in 10.0 mi SE 8.1 mph - N/A   Scattered Clouds
5:35 PM 72.3 °F 63.1 °F 73% 30.38 in 10.0 mi ESE 4.6 mph - N/A   Scattered Clouds
5:55 PM 71.8 °F 62.1 °F 71% 30.37 in 10.0 mi East 5.8 mph - N/A   Mostly Cloudy
6:15 PM 71.1 °F 62.2 °F 74% 30.38 in 10.0 mi ESE 5.8 mph - N/A   Mostly Cloudy
6:35 PM 71.4 °F 62.4 °F 73% 30.38 in 10.0 mi ESE 9.2 mph - N/A   Mostly Cloudy
6:55 PM 71.1 °F 63.3 °F 76% 30.38 in 10.0 mi ESE 4.6 mph - N/A   Overcast
7:15 PM 68.7 °F 64.6 °F 87% 30.38 in 10.0 mi ESE 4.6 mph - N/A   Mostly Cloudy
7:35 PM 69.3 °F 64.6 °F 85% 30.38 in 10.0 mi ESE 4.6 mph - N/A   Scattered Clouds
7:55 PM 69.1 °F 65.3 °F 88% 30.38 in 10.0 mi ESE 4.6 mph - N/A   Scattered Clouds
8:15 PM 69.3 °F 64.9 °F 86% 30.39 in 10.0 mi SE 3.5 mph - N/A   Mostly Cloudy
8:35 PM 69.3 °F 65.3 °F 87% 30.38 in 10.0 mi SE 3.5 mph - N/A   Overcast
8:55 PM 69.1 °F 65.3 °F 88% 30.39 in 10.0 mi SE 4.6 mph - N/A   Overcast
9:15 PM 67.1 °F 64.0 °F 90% 30.40 in 7.0 mi SE 5.8 mph - 0.01 in Rain Light Rain
9:35 PM 66.2 °F 63.9 °F 92% 30.41 in 10.0 mi SE 3.5 mph - 0.01 in   Overcast
9:55 PM 65.8 °F 63.3 °F 92% 30.41 in 10.0 mi Calm Calm - 0.01 in   Mostly Cloudy
10:15 PM 65.5 °F 63.1 °F 92% 30.42 in 10.0 mi Calm Calm - N/A   Scattered Clouds
10:35 PM 65.7 °F 63.1 °F 92% 30.43 in 10.0 mi Calm Calm - N/A   Scattered Clouds
10:55 PM 65.3 °F 63.0 °F 92% 30.43 in 10.0 mi Calm Calm - N/A   Overcast
11:15 PM 65.3 °F 63.0 °F 92% 30.43 in 10.0 mi Calm Calm - N/A   Overcast
11:35 PM 65.3 °F 63.1 °F 93% 30.43 in 7.0 mi Calm Calm - N/A   Overcast
11:55 PM 65.3 °F 63.3 °F 93% 30.43 in 5.0 mi Calm Calm - N/A   Overcast